sensor_id;sensor_type;location;lat;lon;timestamp;pressure;altitude;pressure_sealevel;temperature;humidity
18569;BME280;14780;48.316;-1.050;2023-01-28T00:02:22;100148.75;;;23.83;33.40
18569;BME280;14780;48.316;-1.050;2023-01-28T00:05:07;100155.63;;;23.85;33.10
18569;BME280;14780;48.316;-1.050;2023-01-28T00:07:52;100152.06;;;23.85;33.27
18569;BME280;14780;48.316;-1.050;2023-01-28T00:10:37;100146.59;;;23.85;33.48
18569;BME280;14780;48.316;-1.050;2023-01-28T00:13:23;100148.03;;;23.87;33.57
18569;BME280;14780;48.316;-1.050;2023-01-28T00:16:08;100137.44;;;23.91;33.56
18569;BME280;14780;48.316;-1.050;2023-01-28T00:18:53;100150.88;;;23.92;33.24
18569;BME280;14780;48.316;-1.050;2023-01-28T00:21:38;100144.31;;;23.93;33.22
18569;BME280;14780;48.316;-1.050;2023-01-28T00:24:23;100150.38;;;23.95;33.35
18569;BME280;14780;48.316;-1.050;2023-01-28T00:27:07;100160.72;;;23.93;33.75
18569;BME280;14780;48.316;-1.050;2023-01-28T00:29:52;100155.25;;;23.93;33.47
18569;BME280;14780;48.316;-1.050;2023-01-28T00:32:38;100156.91;;;23.94;33.74
18569;BME280;14780;48.316;-1.050;2023-01-28T00:35:23;100155.00;;;23.95;33.56
18569;BME280;14780;48.316;-1.050;2023-01-28T00:38:08;100141.09;;;23.96;33.48
18569;BME280;14780;48.316;-1.050;2023-01-28T00:40:53;100143.81;;;23.96;33.43
18569;BME280;14780;48.316;-1.050;2023-01-28T00:43:39;100145.13;;;23.94;33.66
18569;BME280;14780;48.316;-1.050;2023-01-28T00:46:24;100145.97;;;23.94;33.57
18569;BME280;14780;48.316;-1.050;2023-01-28T00:49:12;100139.66;;;23.94;33.93
18569;BME280;14780;48.316;-1.050;2023-01-28T00:51:56;100149.28;;;23.96;33.85
18569;BME280;14780;48.316;-1.050;2023-01-28T00:54:42;100154.19;;;23.94;33.63
18569;BME280;14780;48.316;-1.050;2023-01-28T00:57:26;100143.25;;;23.94;33.64
18569;BME280;14780;48.316;-1.050;2023-01-28T01:00:11;100154.41;;;23.93;33.77
18569;BME280;14780;48.316;-1.050;2023-01-28T01:02:56;100155.25;;;23.93;33.70
18569;BME280;14780;48.316;-1.050;2023-01-28T01:05:40;100154.41;;;23.93;33.64
18569;BME280;14780;48.316;-1.050;2023-01-28T01:08:25;100147.19;;;23.87;34.17
18569;BME280;14780;48.316;-1.050;2023-01-28T01:11:18;100154.91;;;23.90;33.77
18569;BME280;14780;48.316;-1.050;2023-01-28T01:14:03;100158.72;;;23.89;34.04
18569;BME280;14780;48.316;-1.050;2023-01-28T01:16:50;100155.16;;;23.88;33.97
18569;BME280;14780;48.316;-1.050;2023-01-28T01:19:36;100154.06;;;23.89;33.56
18569;BME280;14780;48.316;-1.050;2023-01-28T01:22:21;100152.66;;;23.87;33.75
18569;BME280;14780;48.316;-1.050;2023-01-28T01:25:06;100155.16;;;23.88;33.61
18569;BME280;14780;48.316;-1.050;2023-01-28T01:27:51;100160.88;;;23.87;33.62
18569;BME280;14780;48.316;-1.050;2023-01-28T01:30:35;100161.09;;;23.85;33.69
18569;BME280;14780;48.316;-1.050;2023-01-28T01:33:20;100166.56;;;23.85;34.08
18569;BME280;14780;48.316;-1.050;2023-01-28T01:36:05;100153.38;;;23.82;33.71
18569;BME280;14780;48.316;-1.050;2023-01-28T01:38:54;100161.34;;;23.84;33.66
18569;BME280;14780;48.316;-1.050;2023-01-28T01:41:39;100154.22;;;23.83;34.02
18569;BME280;14780;48.316;-1.050;2023-01-28T01:50:35;100166.81;;;23.84;33.60
18569;BME280;14780;48.316;-1.050;2023-01-28T01:53:23;100172.28;;;23.84;34.10
18569;BME280;14780;48.316;-1.050;2023-01-28T01:56:11;100172.28;;;23.84;33.66
18569;BME280;14780;48.316;-1.050;2023-01-28T01:58:57;100175.50;;;23.81;33.92
18569;BME280;14780;48.316;-1.050;2023-01-28T02:01:43;100176.09;;;23.83;33.59
18569;BME280;14780;48.316;-1.050;2023-01-28T02:04:38;100177.97;;;23.82;34.01
18569;BME280;14780;48.316;-1.050;2023-01-28T02:07:23;100186.19;;;23.82;33.61
18569;BME280;14780;48.316;-1.050;2023-01-28T02:10:08;100181.78;;;23.81;33.55
18569;BME280;14780;48.316;-1.050;2023-01-28T02:12:56;100180.97;;;23.81;33.58
18569;BME280;14780;48.316;-1.050;2023-01-28T02:15:42;100177.91;;;23.77;34.00
18569;BME280;14780;48.316;-1.050;2023-01-28T02:18:27;100191.06;;;23.80;33.84
18569;BME280;14780;48.316;-1.050;2023-01-28T02:30:36;100198.94;;;23.77;33.52
18569;BME280;14780;48.316;-1.050;2023-01-28T02:37:10;100182.75;;;23.75;33.49
18569;BME280;14780;48.316;-1.050;2023-01-28T02:40:12;100187.16;;;23.76;33.57
18569;BME280;14780;48.316;-1.050;2023-01-28T02:42:58;100179.97;;;23.70;33.42
18569;BME280;14780;48.316;-1.050;2023-01-28T02:45:43;100187.66;;;23.73;33.76
18569;BME280;14780;48.316;-1.050;2023-01-28T02:48:47;100188.72;;;23.72;33.76
18569;BME280;14780;48.316;-1.050;2023-01-28T02:51:34;100201.31;;;23.73;33.69
18569;BME280;14780;48.316;-1.050;2023-01-28T02:54:48;100198.25;;;23.70;33.58
18569;BME280;14780;48.316;-1.050;2023-01-28T03:01:38;100190.28;;;23.68;33.36
18569;BME280;14780;48.316;-1.050;2023-01-28T03:04:31;100196.72;;;23.62;33.33
18569;BME280;14780;48.316;-1.050;2023-01-28T03:07:18;100200.63;;;23.66;33.63
18569;BME280;14780;48.316;-1.050;2023-01-28T03:10:06;100201.94;;;23.64;33.57
18569;BME280;14780;48.316;-1.050;2023-01-28T03:12:55;100205.25;;;23.66;33.24
18569;BME280;14780;48.316;-1.050;2023-01-28T03:15:59;100206.34;;;23.65;33.19
18569;BME280;14780;48.316;-1.050;2023-01-28T03:19:03;100204.69;;;23.64;33.15
18569;BME280;14780;48.316;-1.050;2023-01-28T03:22:07;100193.75;;;23.64;33.53
18569;BME280;14780;48.316;-1.050;2023-01-28T03:25:11;100204.34;;;23.60;33.08
18569;BME280;14780;48.316;-1.050;2023-01-28T03:28:19;100191.25;;;23.62;33.47
18569;BME280;14780;48.316;-1.050;2023-01-28T03:31:25;100192.34;;;23.61;33.38
18569;BME280;14780;48.316;-1.050;2023-01-28T03:34:29;100197.22;;;23.59;33.08
18569;BME280;14780;48.316;-1.050;2023-01-28T03:37:33;100201.25;;;23.57;33.21
18569;BME280;14780;48.316;-1.050;2023-01-28T03:40:18;100207.31;;;23.59;33.36
18569;BME280;14780;48.316;-1.050;2023-01-28T03:43:03;100208.38;;;23.58;33.27
18569;BME280;14780;48.316;-1.050;2023-01-28T03:45:48;100211.13;;;23.58;32.90
18569;BME280;14780;48.316;-1.050;2023-01-28T03:48:36;100215.28;;;23.60;32.91
18569;BME280;14780;48.316;-1.050;2023-01-28T03:51:21;100216.34;;;23.59;33.35
18569;BME280;14780;48.316;-1.050;2023-01-28T03:54:05;100213.63;;;23.59;32.85
18569;BME280;14780;48.316;-1.050;2023-01-28T03:56:50;100218.22;;;23.59;32.79
18569;BME280;14780;48.316;-1.050;2023-01-28T03:59:35;100219.31;;;23.58;32.85
18569;BME280;14780;48.316;-1.050;2023-01-28T04:02:21;100213.50;;;23.54;32.99
18569;BME280;14780;48.316;-1.050;2023-01-28T04:05:07;100223.34;;;23.55;33.07
18569;BME280;14780;48.316;-1.050;2023-01-28T04:07:56;100214.59;;;23.53;33.08
18569;BME280;14780;48.316;-1.050;2023-01-28T04:10:40;100221.13;;;23.52;32.63
18569;BME280;14780;48.316;-1.050;2023-01-28T04:13:27;100215.66;;;23.52;32.74
18569;BME280;14780;48.316;-1.050;2023-01-28T04:16:13;100218.63;;;23.51;32.58
18569;BME280;14780;48.316;-1.050;2023-01-28T04:18:59;100216.75;;;23.51;32.95
18569;BME280;14780;48.316;-1.050;2023-01-28T04:21:43;100215.06;;;23.50;33.04
18569;BME280;14780;48.316;-1.050;2023-01-28T04:24:28;100209.63;;;23.50;32.82
18569;BME280;14780;48.316;-1.050;2023-01-28T04:27:12;100209.63;;;23.50;32.90
18569;BME280;14780;48.316;-1.050;2023-01-28T04:29:57;100203.06;;;23.51;32.74
18569;BME280;14780;48.316;-1.050;2023-01-28T04:32:42;100207.97;;;23.49;32.88
18569;BME280;14780;48.316;-1.050;2023-01-28T04:35:26;100207.28;;;23.42;32.88
18569;BME280;14780;48.316;-1.050;2023-01-28T04:38:11;100204.63;;;23.47;32.68
18569;BME280;14780;48.316;-1.050;2023-01-28T04:40:56;100200.16;;;23.42;32.88
18569;BME280;14780;48.316;-1.050;2023-01-28T04:43:40;100215.53;;;23.47;32.51
18569;BME280;14780;48.316;-1.050;2023-01-28T04:46:25;100218.28;;;23.47;32.43
18569;BME280;14780;48.316;-1.050;2023-01-28T04:49:09;100221.00;;;23.47;32.48
18569;BME280;14780;48.316;-1.050;2023-01-28T04:51:54;100215.47;;;23.42;32.65
18569;BME280;14780;48.316;-1.050;2023-01-28T04:54:39;100218.53;;;23.46;32.71
18569;BME280;14780;48.316;-1.050;2023-01-28T04:57:24;100223.06;;;23.40;32.78
18569;BME280;14780;48.316;-1.050;2023-01-28T05:00:09;100234.31;;;23.44;32.81
18569;BME280;14780;48.316;-1.050;2023-01-28T05:02:54;100233.50;;;23.43;32.53
18569;BME280;14780;48.316;-1.050;2023-01-28T05:05:38;100238.75;;;23.45;32.66
18569;BME280;14780;48.316;-1.050;2023-01-28T05:08:23;100236.25;;;23.43;32.29
18569;BME280;14780;48.316;-1.050;2023-01-28T05:11:07;100236.72;;;23.40;32.17
18569;BME280;14780;48.316;-1.050;2023-01-28T05:13:54;100240.63;;;23.44;32.53
18569;BME280;14780;48.316;-1.050;2023-01-28T05:16:39;100240.06;;;23.42;32.57
18569;BME280;14780;48.316;-1.050;2023-01-28T05:19:24;100248.81;;;23.44;32.34
18569;BME280;14780;48.316;-1.050;2023-01-28T05:22:08;100239.78;;;23.44;32.26
18569;BME280;14780;48.316;-1.050;2023-01-28T05:24:53;100242.28;;;23.45;32.62
18569;BME280;14780;48.316;-1.050;2023-01-28T05:27:38;100238.84;;;23.38;32.02
18569;BME280;14780;48.316;-1.050;2023-01-28T05:30:22;100247.63;;;23.40;32.38
18569;BME280;14780;48.316;-1.050;2023-01-28T05:33:07;100239.09;;;23.37;32.47
18569;BME280;14780;48.316;-1.050;2023-01-28T05:35:52;100233.91;;;23.36;32.47
18569;BME280;14780;48.316;-1.050;2023-01-28T05:38:37;100224.63;;;23.37;31.92
18569;BME280;14780;48.316;-1.050;2023-01-28T05:41:21;100235.56;;;23.37;32.42
18569;BME280;14780;48.316;-1.050;2023-01-28T05:44:06;100238.28;;;23.37;32.04
18569;BME280;14780;48.316;-1.050;2023-01-28T05:46:51;100242.66;;;23.38;32.19
18569;BME280;14780;48.316;-1.050;2023-01-28T05:49:35;100237.09;;;23.33;32.40
18569;BME280;14780;48.316;-1.050;2023-01-28T05:52:20;100248.63;;;23.35;32.40
18569;BME280;14780;48.316;-1.050;2023-01-28T05:55:05;100252.41;;;23.33;32.35
18569;BME280;14780;48.316;-1.050;2023-01-28T05:57:50;100254.09;;;23.35;32.34
18569;BME280;14780;48.316;-1.050;2023-01-28T06:00:35;100264.41;;;23.33;31.93
18569;BME280;14780;48.316;-1.050;2023-01-28T06:03:19;100263.31;;;23.33;32.30
18569;BME280;14780;48.316;-1.050;2023-01-28T06:06:04;100268.22;;;23.32;32.21
18569;BME280;14780;48.316;-1.050;2023-01-28T06:08:49;100268.44;;;23.30;32.13
18569;BME280;14780;48.316;-1.050;2023-01-28T06:11:34;100268.09;;;23.27;32.03
18569;BME280;14780;48.316;-1.050;2023-01-28T06:14:18;100271.78;;;23.32;32.28
18569;BME280;14780;48.316;-1.050;2023-01-28T06:17:03;100274.75;;;23.31;32.03
18569;BME280;14780;48.316;-1.050;2023-01-28T06:19:47;100280.44;;;23.29;32.23
18569;BME280;14780;48.316;-1.050;2023-01-28T06:22:32;100275.59;;;23.31;32.37
18569;BME280;14780;48.316;-1.050;2023-01-28T06:25:17;100288.03;;;23.27;32.18
18569;BME280;14780;48.316;-1.050;2023-01-28T06:28:02;100286.16;;;23.28;32.33
18569;BME280;14780;48.316;-1.050;2023-01-28T06:30:50;100284.00;;;23.30;32.36
18569;BME280;14780;48.316;-1.050;2023-01-28T06:33:35;100280.69;;;23.28;32.00
18569;BME280;14780;48.316;-1.050;2023-01-28T06:36:20;100284.00;;;23.30;31.91
18569;BME280;14780;48.316;-1.050;2023-01-28T06:39:05;100284.47;;;23.27;31.95
18569;BME280;14780;48.316;-1.050;2023-01-28T06:41:50;100273.31;;;23.28;32.17
18569;BME280;14780;48.316;-1.050;2023-01-28T06:44:34;100275.81;;;23.30;32.36
18569;BME280;14780;48.316;-1.050;2023-01-28T06:47:19;100275.25;;;23.28;32.01
18569;BME280;14780;48.316;-1.050;2023-01-28T06:50:04;100272.50;;;23.28;32.10
18569;BME280;14780;48.316;-1.050;2023-01-28T06:52:48;100279.00;;;23.27;32.20
18569;BME280;14780;48.316;-1.050;2023-01-28T06:55:33;100272.75;;;23.26;31.75
18569;BME280;14780;48.316;-1.050;2023-01-28T06:58:18;100275.81;;;23.30;32.10
18569;BME280;14780;48.316;-1.050;2023-01-28T07:01:03;100274.16;;;23.29;32.33
18569;BME280;14780;48.316;-1.050;2023-01-28T07:03:47;100275.25;;;23.28;31.73
18569;BME280;14780;48.316;-1.050;2023-01-28T07:06:32;100271.66;;;23.27;32.09
18569;BME280;14780;48.316;-1.050;2023-01-28T07:09:16;100279.00;;;23.27;31.94
18569;BME280;14780;48.316;-1.050;2023-01-28T07:12:01;100285.53;;;23.26;32.08
18569;BME280;14780;48.316;-1.050;2023-01-28T07:14:48;100288.28;;;23.26;32.05
18569;BME280;14780;48.316;-1.050;2023-01-28T07:17:33;100297.53;;;23.25;31.82
18569;BME280;14780;48.316;-1.050;2023-01-28T07:20:18;100291.84;;;23.26;31.69
18569;BME280;14780;48.316;-1.050;2023-01-28T07:23:03;100299.69;;;23.23;32.02
18569;BME280;14780;48.316;-1.050;2023-01-28T07:25:48;100297.53;;;23.25;31.98
18569;BME280;14780;48.316;-1.050;2023-01-28T07:28:32;100303.00;;;23.25;31.64
18569;BME280;14780;48.316;-1.050;2023-01-28T07:31:17;100294.22;;;23.23;31.92
18569;BME280;14780;48.316;-1.050;2023-01-28T07:34:02;100294.38;;;23.16;32.02
18569;BME280;14780;48.316;-1.050;2023-01-28T07:36:46;100291.16;;;23.19;31.98
18569;BME280;14780;48.316;-1.050;2023-01-28T07:39:31;100286.75;;;23.18;31.76
18569;BME280;14780;48.316;-1.050;2023-01-28T07:42:15;100298.50;;;23.19;31.71
18569;BME280;14780;48.316;-1.050;2023-01-28T07:45:01;100287.56;;;23.19;32.02
18569;BME280;14780;48.316;-1.050;2023-01-28T07:47:54;100293.88;;;23.19;31.75
18569;BME280;14780;48.316;-1.050;2023-01-28T07:50:39;100299.56;;;23.18;31.92
18569;BME280;14780;48.316;-1.050;2023-01-28T07:53:25;100299.56;;;23.18;32.01
18569;BME280;14780;48.316;-1.050;2023-01-28T07:56:09;100297.91;;;23.17;31.62
18569;BME280;14780;48.316;-1.050;2023-01-28T07:58:54;100299.56;;;23.18;31.94
18569;BME280;14780;48.316;-1.050;2023-01-28T08:01:39;100297.09;;;23.16;31.51
18569;BME280;14780;48.316;-1.050;2023-01-28T08:04:23;100302.75;;;23.15;31.98
18569;BME280;14780;48.316;-1.050;2023-01-28T08:07:08;100301.09;;;23.14;32.01
18569;BME280;14780;48.316;-1.050;2023-01-28T08:09:53;100300.03;;;23.15;31.73
18569;BME280;14780;48.316;-1.050;2023-01-28T08:12:38;100306.56;;;23.14;31.94
18569;BME280;14780;48.316;-1.050;2023-01-28T08:15:24;100304.22;;;23.17;31.68
18569;BME280;14780;48.316;-1.050;2023-01-28T08:18:10;100309.91;;;23.16;31.77
18569;BME280;14780;48.316;-1.050;2023-01-28T08:20:58;100301.91;;;23.14;31.88
18569;BME280;14780;48.316;-1.050;2023-01-28T08:23:42;100310.75;;;23.16;31.48
18569;BME280;14780;48.316;-1.050;2023-01-28T08:26:27;100310.75;;;23.16;31.89
18569;BME280;14780;48.316;-1.050;2023-01-28T08:29:11;100316.63;;;23.13;31.72
18569;BME280;14780;48.316;-1.050;2023-01-28T08:31:56;100294.56;;;23.15;31.37
18569;BME280;14780;48.316;-1.050;2023-01-28T08:34:41;100297.28;;;23.15;31.78
18569;BME280;14780;48.316;-1.050;2023-01-28T08:37:26;100295.63;;;23.14;31.34
18569;BME280;14780;48.316;-1.050;2023-01-28T08:40:11;100305.72;;;23.13;31.70
18569;BME280;14780;48.316;-1.050;2023-01-28T08:42:56;100312.25;;;23.12;31.76
18569;BME280;14780;48.316;-1.050;2023-01-28T08:45:42;100322.94;;;23.14;31.81
18569;BME280;14780;48.316;-1.050;2023-01-28T08:48:26;100316.63;;;23.13;31.50
18569;BME280;14780;48.316;-1.050;2023-01-28T08:51:11;100320.81;;;23.16;31.31
18569;BME280;14780;48.316;-1.050;2023-01-28T08:53:55;100333.03;;;23.13;31.78
18569;BME280;14780;48.316;-1.050;2023-01-28T08:56:40;100320.81;;;23.16;31.88
18569;BME280;14780;48.316;-1.050;2023-01-28T08:59:28;100318.09;;;23.16;31.76
18569;BME280;14780;48.316;-1.050;2023-01-28T09:02:13;100330.69;;;23.17;31.94
18569;BME280;14780;48.316;-1.050;2023-01-28T09:04:58;100321.03;;;23.14;31.83
18569;BME280;14780;48.316;-1.050;2023-01-28T09:07:44;100341.44;;;23.12;31.74
18569;BME280;14780;48.316;-1.050;2023-01-28T09:10:29;100340.53;;;23.18;31.62
18569;BME280;14780;48.316;-1.050;2023-01-28T09:13:14;100338.72;;;23.12;31.34
18569;BME280;14780;48.316;-1.050;2023-01-28T09:15:59;100352.53;;;23.17;31.61
18569;BME280;14780;48.316;-1.050;2023-01-28T09:18:44;100349.78;;;23.17;31.74
18569;BME280;14780;48.316;-1.050;2023-01-28T09:21:28;100354.63;;;23.15;31.92
18569;BME280;14780;48.316;-1.050;2023-01-28T09:24:13;100352.13;;;23.13;31.97
18569;BME280;14780;48.316;-1.050;2023-01-28T09:26:57;100360.72;;;23.17;31.35
18569;BME280;14780;48.316;-1.050;2023-01-28T09:29:42;100364.72;;;23.14;31.65
18569;BME280;14780;48.316;-1.050;2023-01-28T09:32:28;100360.72;;;23.17;31.44
18569;BME280;14780;48.316;-1.050;2023-01-28T09:35:14;100369.97;;;23.16;31.59
18569;BME280;14780;48.316;-1.050;2023-01-28T09:38:00;100372.69;;;23.16;32.03
18569;BME280;14780;48.316;-1.050;2023-01-28T09:40:45;100376.28;;;23.16;31.64
18569;BME280;14780;48.316;-1.050;2023-01-28T09:46:35;100366.16;;;23.17;32.13
18569;BME280;14780;48.316;-1.050;2023-01-28T09:49:28;100380.06;;;23.15;31.98
18569;BME280;14780;48.316;-1.050;2023-01-28T09:52:18;100385.06;;;23.18;31.78
18569;BME280;14780;48.316;-1.050;2023-01-28T09:55:37;100379.34;;;23.20;32.12
18569;BME280;14780;48.316;-1.050;2023-01-28T09:58:22;100390.88;;;23.22;32.24
18569;BME280;14780;48.316;-1.050;2023-01-28T10:01:37;100392.91;;;23.26;32.10
18569;BME280;14780;48.316;-1.050;2023-01-28T10:07:41;100417.59;;;23.31;32.50
18569;BME280;14780;48.316;-1.050;2023-01-28T10:10:42;100417.59;;;23.31;32.23
18569;BME280;14780;48.316;-1.050;2023-01-28T10:25:49;100421.63;;;23.29;32.08
18569;BME280;14780;48.316;-1.050;2023-01-28T10:28:35;100428.16;;;23.28;32.10
18569;BME280;14780;48.316;-1.050;2023-01-28T10:31:22;100429.81;;;23.29;32.35
18569;BME280;14780;48.316;-1.050;2023-01-28T10:34:09;100428.16;;;23.28;32.24
18569;BME280;14780;48.316;-1.050;2023-01-28T10:36:54;100422.44;;;23.29;32.29
18569;BME280;14780;48.316;-1.050;2023-01-28T10:39:41;100424.81;;;23.26;32.38
18569;BME280;14780;48.316;-1.050;2023-01-28T10:42:31;100429.81;;;23.29;32.45
18569;BME280;14780;48.316;-1.050;2023-01-28T10:45:25;100415.09;;;23.30;31.83
18569;BME280;14780;48.316;-1.050;2023-01-28T10:51:03;100415.91;;;23.30;31.92
18569;BME280;14780;48.316;-1.050;2023-01-28T10:53:50;100421.84;;;23.27;32.33
18569;BME280;14780;48.316;-1.050;2023-01-28T10:56:34;100419.97;;;23.28;31.91
18569;BME280;14780;48.316;-1.050;2023-01-28T10:59:32;100410.94;;;23.27;32.25
18569;BME280;14780;48.316;-1.050;2023-01-28T11:05:17;100396.34;;;23.33;32.27
18569;BME280;14780;48.316;-1.050;2023-01-28T11:08:11;100388.97;;;23.33;32.32
18569;BME280;14780;48.316;-1.050;2023-01-28T11:10:58;100395.03;;;23.36;32.00
18569;BME280;14780;48.316;-1.050;2023-01-28T11:13:50;100396.69;;;23.37;32.15
18569;BME280;14780;48.316;-1.050;2023-01-28T11:16:39;100383.03;;;23.37;32.17
18569;BME280;14780;48.316;-1.050;2023-01-28T11:19:34;100391.81;;;23.38;31.81
18569;BME280;14780;48.316;-1.050;2023-01-28T11:22:38;100395.75;;;23.42;32.12
18569;BME280;14780;48.316;-1.050;2023-01-28T11:25:33;100383.75;;;23.43;31.68
18569;BME280;14780;48.316;-1.050;2023-01-28T11:28:20;100378.16;;;23.38;32.19
18569;BME280;14780;48.316;-1.050;2023-01-28T11:31:06;100390.88;;;23.44;31.80
18569;BME280;14780;48.316;-1.050;2023-01-28T11:33:59;100382.69;;;23.44;31.68
18569;BME280;14780;48.316;-1.050;2023-01-28T11:37:02;100383.53;;;23.45;32.01
18569;BME280;14780;48.316;-1.050;2023-01-28T11:39:47;100373.28;;;23.40;32.08
18569;BME280;14780;48.316;-1.050;2023-01-28T11:42:32;100374.47;;;23.44;31.80
18569;BME280;14780;48.316;-1.050;2023-01-28T11:45:38;100369.88;;;23.45;32.05
18569;BME280;14780;48.316;-1.050;2023-01-28T11:51:48;100368.53;;;23.47;31.68
18569;BME280;14780;48.316;-1.050;2023-01-28T12:08:40;100368.16;;;23.55;31.98
18569;BME280;14780;48.316;-1.050;2023-01-28T12:13:56;100361.66;;;23.56;31.97
18569;BME280;14780;48.316;-1.050;2023-01-28T12:20:17;100355.69;;;23.59;31.68
18569;BME280;14780;48.316;-1.050;2023-01-28T12:41:46;100324.28;;;23.73;31.92
18569;BME280;14780;48.316;-1.050;2023-01-28T12:44:39;100322.13;;;23.75;32.15
18569;BME280;14780;48.316;-1.050;2023-01-28T12:47:35;100327.59;;;23.75;31.76
18569;BME280;14780;48.316;-1.050;2023-01-28T12:50:41;100322.13;;;23.75;32.20
18569;BME280;14780;48.316;-1.050;2023-01-28T12:53:45;100328.69;;;23.74;32.13
18569;BME280;14780;48.316;-1.050;2023-01-28T12:56:37;100332.25;;;23.75;32.25
18569;BME280;14780;48.316;-1.050;2023-01-28T12:59:33;100328.69;;;23.74;31.93
18569;BME280;14780;48.316;-1.050;2023-01-28T13:02:28;100324.28;;;23.73;31.77
18569;BME280;14780;48.316;-1.050;2023-01-28T13:05:21;100320.47;;;23.74;31.92
18569;BME280;14780;48.316;-1.050;2023-01-28T13:08:29;100321.56;;;23.73;32.21
18569;BME280;14780;48.316;-1.050;2023-01-28T13:11:18;100320.47;;;23.74;32.18
18569;BME280;14780;48.316;-1.050;2023-01-28T13:14:03;100328.91;;;23.73;31.63
18569;BME280;14780;48.316;-1.050;2023-01-28T13:16:49;100324.28;;;23.73;31.88
18569;BME280;14780;48.316;-1.050;2023-01-28T13:19:41;100314.22;;;23.74;31.94
18569;BME280;14780;48.316;-1.050;2023-01-28T13:22:31;100318.25;;;23.71;32.39
18569;BME280;14780;48.316;-1.050;2023-01-28T13:28:21;100320.84;;;23.78;32.13
18569;BME280;14780;48.316;-1.050;2023-01-28T13:31:10;100319.19;;;23.77;32.33
18569;BME280;14780;48.316;-1.050;2023-01-28T13:34:04;100313.94;;;23.75;32.13
18569;BME280;14780;48.316;-1.050;2023-01-28T13:36:49;100316.69;;;23.75;31.66
18569;BME280;14780;48.316;-1.050;2023-01-28T13:39:35;100315.03;;;23.74;32.05
18569;BME280;14780;48.316;-1.050;2023-01-28T13:42:28;100317.19;;;23.72;31.64
18569;BME280;14780;48.316;-1.050;2023-01-28T13:50:58;100302.31;;;23.68;31.61
18569;BME280;14780;48.316;-1.050;2023-01-28T13:53:58;100308.88;;;23.67;31.49
18569;BME280;14780;48.316;-1.050;2023-01-28T14:15:31;100280.84;;;23.60;31.56
18569;BME280;14780;48.316;-1.050;2023-01-28T14:18:35;100285.00;;;23.63;31.30
18569;BME280;14780;48.316;-1.050;2023-01-28T14:21:22;100287.97;;;23.61;31.75
18569;BME280;14780;48.316;-1.050;2023-01-28T14:24:14;100293.69;;;23.60;31.40
18569;BME280;14780;48.316;-1.050;2023-01-28T14:27:08;100286.31;;;23.60;31.28
18569;BME280;14780;48.316;-1.050;2023-01-28T14:30:19;100289.28;;;23.59;31.54
18569;BME280;14780;48.316;-1.050;2023-01-28T14:33:10;100290.13;;;23.59;31.16
18569;BME280;14780;48.316;-1.050;2023-01-28T14:35:56;100304.84;;;23.58;31.35
18569;BME280;14780;48.316;-1.050;2023-01-28T14:38:42;100309.75;;;23.56;31.24
18569;BME280;14780;48.316;-1.050;2023-01-28T14:41:29;100296.53;;;23.53;31.16
18569;BME280;14780;48.316;-1.050;2023-01-28T14:44:35;100311.63;;;23.56;31.64
18569;BME280;14780;48.316;-1.050;2023-01-28T14:47:42;100317.94;;;23.56;31.05
18569;BME280;14780;48.316;-1.050;2023-01-28T14:54:06;100319.25;;;23.54;31.58
18569;BME280;14780;48.316;-1.050;2023-01-28T14:59:54;100330.97;;;23.54;31.46
18569;BME280;14780;48.316;-1.050;2023-01-28T15:02:43;100329.31;;;23.53;31.47
18569;BME280;14780;48.316;-1.050;2023-01-28T15:05:29;100325.50;;;23.54;31.62
18569;BME280;14780;48.316;-1.050;2023-01-28T15:08:22;100330.97;;;23.54;31.24
18569;BME280;14780;48.316;-1.050;2023-01-28T15:11:10;100337.53;;;23.53;31.52
18569;BME280;14780;48.316;-1.050;2023-01-28T15:13:58;100331.47;;;23.51;31.20
18569;BME280;14780;48.316;-1.050;2023-01-28T15:16:47;100340.50;;;23.52;31.29
18569;BME280;14780;48.316;-1.050;2023-01-28T15:19:34;100345.72;;;23.53;31.54
18569;BME280;14780;48.316;-1.050;2023-01-28T15:22:23;100346.78;;;23.52;31.29
18569;BME280;14780;48.316;-1.050;2023-01-28T15:25:17;100344.06;;;23.52;31.54
18569;BME280;14780;48.316;-1.050;2023-01-28T15:28:03;100350.59;;;23.51;31.59
18569;BME280;14780;48.316;-1.050;2023-01-28T15:30:48;100347.88;;;23.51;31.65
18569;BME280;14780;48.316;-1.050;2023-01-28T15:33:33;100347.88;;;23.51;31.14
18569;BME280;14780;48.316;-1.050;2023-01-28T15:36:17;100356.66;;;23.53;31.18
18569;BME280;14780;48.316;-1.050;2023-01-28T15:39:03;100351.66;;;23.50;31.60
18569;BME280;14780;48.316;-1.050;2023-01-28T15:41:58;100359.63;;;23.52;31.15
18569;BME280;14780;48.316;-1.050;2023-01-28T15:44:45;100355.00;;;23.52;31.33
18569;BME280;14780;48.316;-1.050;2023-01-28T15:47:32;100356.66;;;23.53;31.52
18569;BME280;14780;48.316;-1.050;2023-01-28T15:50:23;100352.25;;;23.52;31.01
18569;BME280;14780;48.316;-1.050;2023-01-28T15:53:13;100362.09;;;23.53;30.95
18569;BME280;14780;48.316;-1.050;2023-01-28T15:56:28;100368.06;;;23.50;30.94
18569;BME280;14780;48.316;-1.050;2023-01-28T15:59:26;100367.56;;;23.53;31.14
18569;BME280;14780;48.316;-1.050;2023-01-28T16:02:21;100364.84;;;23.53;31.57
18569;BME280;14780;48.316;-1.050;2023-01-28T16:05:22;100364.25;;;23.51;31.58
18569;BME280;14780;48.316;-1.050;2023-01-28T16:08:10;100363.19;;;23.52;31.47
18569;BME280;14780;48.316;-1.050;2023-01-28T16:10:56;100371.88;;;23.49;31.15
18569;BME280;14780;48.316;-1.050;2023-01-28T16:13:43;100372.22;;;23.53;31.17
18569;BME280;14780;48.316;-1.050;2023-01-28T16:16:33;100371.38;;;23.52;31.54
18569;BME280;14780;48.316;-1.050;2023-01-28T16:22:34;100376.84;;;23.52;31.55
18569;BME280;14780;48.316;-1.050;2023-01-28T16:25:29;100376.84;;;23.52;31.41
18569;BME280;14780;48.316;-1.050;2023-01-28T16:28:18;100370.56;;;23.52;31.08
18569;BME280;14780;48.316;-1.050;2023-01-28T16:31:08;100373.75;;;23.49;31.48
18569;BME280;14780;48.316;-1.050;2023-01-28T16:33:54;100378.41;;;23.48;31.16
18569;BME280;14780;48.316;-1.050;2023-01-28T16:36:39;100379.44;;;23.47;30.88